Breckenridge, Colorado
Current Conditions -  °F | °C
As of 12:56 PM on Thursday 30 Oct 2014 (Local Time) from KCCU Reporting Station
Clear Clear  
Wind Chill: 33°   Ceiling: Unl
Heat Index: 41°   Visibility: NA
Dew Point: 19°   Wind: 14mph
Humidity: 42%   Direction: 270°W
Pressure: 30.57"   Gusts: 29mph
Location:  39.48°N, 106.04°W
Report Text: KCCU 301856Z AUTO 27012G25KT CLR 05/M07 A3057 RMK AO2 PWINO
Loading
Personal Weather Stations






























Interactive Weather Map New forecast layout! Learn more

10-Day Weather Forecast

Advertisements
Track Severe Weather on mobile